sensor_id;sensor_type;location;lat;lon;timestamp;temperature;humidity
78520;SHT31;67818;51.986;5.648;2023-04-15T08:32:11;15.3;46.1
78520;SHT31;67818;51.986;5.648;2023-04-15T08:37:33;14.7;47.9
78520;SHT31;67818;51.986;5.648;2023-04-15T08:44:29;14.8;47.8
78520;SHT31;67818;51.986;5.648;2023-04-15T08:47:01;14.7;48.2
78520;SHT31;67818;51.986;5.648;2023-04-15T08:52:07;14.9;47.7
78520;SHT31;67818;51.986;5.648;2023-04-15T09:01:48;15.0;48.1
78520;SHT31;67818;51.986;5.648;2023-04-15T09:04:20;14.9;47.9
78520;SHT31;67818;51.986;5.648;2023-04-15T09:06:51;15.0;47.3
78520;SHT31;67818;51.986;5.648;2023-04-15T09:09:20;15.0;48.1
78520;SHT31;67818;51.986;5.648;2023-04-15T09:11:50;15.0;48.4
78520;SHT31;67818;51.986;5.648;2023-04-15T09:14:19;15.0;48.4
78520;SHT31;67818;51.986;5.648;2023-04-15T09:17:00;14.9;49.0
78520;SHT31;67818;51.986;5.648;2023-04-15T09:19:31;15.0;48.4
78520;SHT31;67818;51.986;5.648;2023-04-15T09:22:02;15.0;48.7
78520;SHT31;67818;51.986;5.648;2023-04-15T09:24:36;15.0;48.2
78520;SHT31;67818;51.986;5.648;2023-04-15T09:27:08;15.1;49.1
78520;SHT31;67818;51.986;5.648;2023-04-15T12:08:14;21.0;34.6
78520;SHT31;67818;51.986;5.648;2023-04-15T12:11:02;19.6;38.0
78520;SHT31;67818;51.986;5.648;2023-04-15T12:13:34;19.3;37.6
78520;SHT31;67818;51.986;5.648;2023-04-15T12:27:28;20.2;37.1
78520;SHT31;67818;51.986;5.648;2023-04-15T12:39:50;19.2;39.2
78520;SHT31;67818;51.986;5.648;2023-04-15T12:44:23;19.0;39.4
78520;SHT31;67818;51.986;5.648;2023-04-15T13:05:15;19.6;37.6
78520;SHT31;67818;51.986;5.648;2023-04-15T13:07:52;19.4;37.8
78520;SHT31;67818;51.986;5.648;2023-04-15T13:10:25;19.2;38.9
78520;SHT31;67818;51.986;5.648;2023-04-15T13:13:00;18.9;38.7
78520;SHT31;67818;51.986;5.648;2023-04-15T13:15:33;18.7;38.8
78520;SHT31;67818;51.986;5.648;2023-04-15T13:18:05;18.5;39.7
78520;SHT31;67818;51.986;5.648;2023-04-15T13:30:25;19.1;39.0
78520;SHT31;67818;51.986;5.648;2023-04-15T13:33:21;18.9;39.9
78520;SHT31;67818;51.986;5.648;2023-04-15T13:36:22;18.8;40.8
78520;SHT31;67818;51.986;5.648;2023-04-15T13:39:09;18.7;41.0
78520;SHT31;67818;51.986;5.648;2023-04-15T13:41:55;18.7;41.6
78520;SHT31;67818;51.986;5.648;2023-04-15T13:44:35;18.6;41.0
78520;SHT31;67818;51.986;5.648;2023-04-15T13:47:10;18.5;40.7
78520;SHT31;67818;51.986;5.648;2023-04-15T13:49:44;18.4;41.0
78520;SHT31;67818;51.986;5.648;2023-04-15T13:52:18;18.3;41.1
78520;SHT31;67818;51.986;5.648;2023-04-15T13:54:50;18.1;41.5
78520;SHT31;67818;51.986;5.648;2023-04-15T13:57:26;17.9;41.9
78520;SHT31;67818;51.986;5.648;2023-04-15T13:59:56;17.8;42.2
78520;SHT31;67818;51.986;5.648;2023-04-15T14:02:38;17.5;42.1
78520;SHT31;67818;51.986;5.648;2023-04-15T14:05:26;17.3;43.0
78520;SHT31;67818;51.986;5.648;2023-04-15T14:08:00;17.2;44.3
78520;SHT31;67818;51.986;5.648;2023-04-15T14:10:31;17.1;44.6
78520;SHT31;67818;51.986;5.648;2023-04-15T14:13:11;17.0;45.2
78520;SHT31;67818;51.986;5.648;2023-04-15T14:15:43;16.9;45.4
78520;SHT31;67818;51.986;5.648;2023-04-15T14:18:13;16.7;45.4
78520;SHT31;67818;51.986;5.648;2023-04-15T14:20:43;16.5;46.1
78520;SHT31;67818;51.986;5.648;2023-04-15T14:23:13;16.4;46.6
78520;SHT31;67818;51.986;5.648;2023-04-15T14:25:44;16.3;47.4
78520;SHT31;67818;51.986;5.648;2023-04-15T14:28:14;16.2;47.4
78520;SHT31;67818;51.986;5.648;2023-04-15T14:30:47;16.1;46.7
78520;SHT31;67818;51.986;5.648;2023-04-15T14:33:19;16.0;47.2
78520;SHT31;67818;51.986;5.648;2023-04-15T14:35:52;16.0;48.0
78520;SHT31;67818;51.986;5.648;2023-04-15T14:38:24;15.9;47.4
78520;SHT31;67818;51.986;5.648;2023-04-15T14:40:55;15.8;47.9
78520;SHT31;67818;51.986;5.648;2023-04-15T14:43:25;15.7;48.0
78520;SHT31;67818;51.986;5.648;2023-04-15T14:45:55;15.5;49.0
78520;SHT31;67818;51.986;5.648;2023-04-15T14:48:25;15.4;49.3
78520;SHT31;67818;51.986;5.648;2023-04-15T14:50:55;15.2;49.9
78520;SHT31;67818;51.986;5.648;2023-04-15T14:53:28;15.1;49.2
78520;SHT31;67818;51.986;5.648;2023-04-15T14:55:58;15.0;49.5
78520;SHT31;67818;51.986;5.648;2023-04-15T14:58:28;14.9;49.8
78520;SHT31;67818;51.986;5.648;2023-04-15T15:01:00;14.8;50.4
78520;SHT31;67818;51.986;5.648;2023-04-15T15:03:37;14.7;50.7
78520;SHT31;67818;51.986;5.648;2023-04-15T15:06:10;14.6;51.2
78520;SHT31;67818;51.986;5.648;2023-04-15T15:08:45;14.5;52.0
78520;SHT31;67818;51.986;5.648;2023-04-15T15:11:16;14.5;52.3
78520;SHT31;67818;51.986;5.648;2023-04-15T15:13:48;14.5;52.3
78520;SHT31;67818;51.986;5.648;2023-04-15T15:16:24;14.4;52.6
78520;SHT31;67818;51.986;5.648;2023-04-15T15:18:54;14.4;52.5
78520;SHT31;67818;51.986;5.648;2023-04-15T15:21:24;14.3;53.1
78520;SHT31;67818;51.986;5.648;2023-04-15T15:23:58;14.2;53.1
78520;SHT31;67818;51.986;5.648;2023-04-15T15:26:30;14.2;53.2
78520;SHT31;67818;51.986;5.648;2023-04-15T15:29:01;14.1;53.4
78520;SHT31;67818;51.986;5.648;2023-04-15T15:31:33;14.0;53.1
78520;SHT31;67818;51.986;5.648;2023-04-15T15:34:06;13.9;53.1
78520;SHT31;67818;51.986;5.648;2023-04-15T15:36:38;13.8;53.2
78520;SHT31;67818;51.986;5.648;2023-04-15T15:39:10;13.8;53.6
78520;SHT31;67818;51.986;5.648;2023-04-15T15:41:41;13.7;54.3
78520;SHT31;67818;51.986;5.648;2023-04-15T15:44:12;13.6;54.4
78520;SHT31;67818;51.986;5.648;2023-04-15T15:46:42;13.6;54.3
78520;SHT31;67818;51.986;5.648;2023-04-15T15:49:14;13.6;54.3
78520;SHT31;67818;51.986;5.648;2023-04-15T15:51:44;13.5;54.7
78520;SHT31;67818;51.986;5.648;2023-04-15T15:54:18;13.5;54.2
78520;SHT31;67818;51.986;5.648;2023-04-15T15:56:53;13.4;54.9
78520;SHT31;67818;51.986;5.648;2023-04-15T15:59:25;13.4;54.7
78520;SHT31;67818;51.986;5.648;2023-04-15T16:01:55;13.3;54.8
78520;SHT31;67818;51.986;5.648;2023-04-15T16:04:25;13.3;55.0
78520;SHT31;67818;51.986;5.648;2023-04-15T16:06:55;13.3;55.0
78520;SHT31;67818;51.986;5.648;2023-04-15T16:09:25;13.3;55.0
78520;SHT31;67818;51.986;5.648;2023-04-15T16:11:56;13.2;55.1
78520;SHT31;67818;51.986;5.648;2023-04-15T16:14:26;13.2;55.5
78520;SHT31;67818;51.986;5.648;2023-04-15T16:16:55;13.1;55.5
78520;SHT31;67818;51.986;5.648;2023-04-15T16:19:26;13.1;55.9
78520;SHT31;67818;51.986;5.648;2023-04-15T16:21:59;13.0;55.7
78520;SHT31;67818;51.986;5.648;2023-04-15T16:24:32;12.9;56.0
78520;SHT31;67818;51.986;5.648;2023-04-15T16:27:02;12.8;56.3
78520;SHT31;67818;51.986;5.648;2023-04-15T16:29:33;12.7;56.9
78520;SHT31;67818;51.986;5.648;2023-04-15T16:32:05;12.7;57.7
78520;SHT31;67818;51.986;5.648;2023-04-15T16:34:35;12.6;57.8
78520;SHT31;67818;51.986;5.648;2023-04-15T16:37:06;12.6;58.5
78520;SHT31;67818;51.986;5.648;2023-04-15T16:39:38;12.6;58.5
78520;SHT31;67818;51.986;5.648;2023-04-15T16:42:10;12.6;58.4
78520;SHT31;67818;51.986;5.648;2023-04-15T16:44:40;12.7;58.2
78520;SHT31;67818;51.986;5.648;2023-04-15T16:47:10;12.7;58.0
78520;SHT31;67818;51.986;5.648;2023-04-15T16:49:42;12.7;57.6
78520;SHT31;67818;51.986;5.648;2023-04-15T16:52:13;12.7;57.3
78520;SHT31;67818;51.986;5.648;2023-04-15T16:54:43;12.7;57.4
78520;SHT31;67818;51.986;5.648;2023-04-15T16:57:14;12.6;57.3
78520;SHT31;67818;51.986;5.648;2023-04-15T16:59:45;12.6;57.9
78520;SHT31;67818;51.986;5.648;2023-04-15T17:02:14;12.5;58.3
78520;SHT31;67818;51.986;5.648;2023-04-15T17:04:44;12.5;58.8
78520;SHT31;67818;51.986;5.648;2023-04-15T17:07:17;12.4;59.0
78520;SHT31;67818;51.986;5.648;2023-04-15T17:09:47;12.4;59.0
78520;SHT31;67818;51.986;5.648;2023-04-15T17:12:17;12.4;59.1
78520;SHT31;67818;51.986;5.648;2023-04-15T17:14:47;12.3;59.5
78520;SHT31;67818;51.986;5.648;2023-04-15T17:17:17;12.3;59.6
78520;SHT31;67818;51.986;5.648;2023-04-15T17:19:50;12.2;59.9
78520;SHT31;67818;51.986;5.648;2023-04-15T17:22:21;12.2;60.0
78520;SHT31;67818;51.986;5.648;2023-04-15T17:24:51;12.1;59.9
78520;SHT31;67818;51.986;5.648;2023-04-15T17:27:21;12.1;60.1
78520;SHT31;67818;51.986;5.648;2023-04-15T17:29:51;12.1;60.2
78520;SHT31;67818;51.986;5.648;2023-04-15T17:32:23;12.1;60.4
78520;SHT31;67818;51.986;5.648;2023-04-15T17:34:58;12.1;60.6
78520;SHT31;67818;51.986;5.648;2023-04-15T17:37:30;12.2;60.4
78520;SHT31;67818;51.986;5.648;2023-04-15T17:40:01;12.2;60.0
78520;SHT31;67818;51.986;5.648;2023-04-15T17:42:31;12.2;59.9
78520;SHT31;67818;51.986;5.648;2023-04-15T17:45:00;12.1;60.2
78520;SHT31;67818;51.986;5.648;2023-04-15T17:47:31;12.1;60.4
78520;SHT31;67818;51.986;5.648;2023-04-15T17:50:02;12.0;60.0
78520;SHT31;67818;51.986;5.648;2023-04-15T17:52:33;12.0;60.1
78520;SHT31;67818;51.986;5.648;2023-04-15T17:55:04;11.9;60.2
78520;SHT31;67818;51.986;5.648;2023-04-15T17:57:34;11.8;60.4
78520;SHT31;67818;51.986;5.648;2023-04-15T18:00:07;11.8;60.6
78520;SHT31;67818;51.986;5.648;2023-04-15T18:02:43;11.7;61.1
78520;SHT31;67818;51.986;5.648;2023-04-15T18:05:17;11.7;61.3
78520;SHT31;67818;51.986;5.648;2023-04-15T18:07:49;11.6;61.6
78520;SHT31;67818;51.986;5.648;2023-04-15T18:10:21;11.6;61.8
78520;SHT31;67818;51.986;5.648;2023-04-15T18:12:52;11.6;62.1
78520;SHT31;67818;51.986;5.648;2023-04-15T18:15:30;11.5;62.2
78520;SHT31;67818;51.986;5.648;2023-04-15T18:18:01;11.5;62.4
78520;SHT31;67818;51.986;5.648;2023-04-15T18:20:43;11.5;62.5
78520;SHT31;67818;51.986;5.648;2023-04-15T18:23:16;11.5;62.3
78520;SHT31;67818;51.986;5.648;2023-04-15T18:25:51;11.4;62.2
78520;SHT31;67818;51.986;5.648;2023-04-15T18:28:21;11.4;62.5
78520;SHT31;67818;51.986;5.648;2023-04-15T18:31:02;11.4;62.9
78520;SHT31;67818;51.986;5.648;2023-04-15T18:33:37;11.4;62.9
78520;SHT31;67818;51.986;5.648;2023-04-15T18:36:11;11.4;63.2
78520;SHT31;67818;51.986;5.648;2023-04-15T18:38:46;11.3;63.5
78520;SHT31;67818;51.986;5.648;2023-04-15T18:41:18;11.3;63.8
78520;SHT31;67818;51.986;5.648;2023-04-15T18:43:52;11.3;64.4
78520;SHT31;67818;51.986;5.648;2023-04-15T18:46:23;11.3;64.9
78520;SHT31;67818;51.986;5.648;2023-04-15T18:49:01;11.3;65.5
78520;SHT31;67818;51.986;5.648;2023-04-15T18:51:35;11.2;65.9
78520;SHT31;67818;51.986;5.648;2023-04-15T18:54:06;11.2;66.0
78520;SHT31;67818;51.986;5.648;2023-04-15T18:56:38;11.2;66.4
78520;SHT31;67818;51.986;5.648;2023-04-15T18:59:09;11.2;66.3
78520;SHT31;67818;51.986;5.648;2023-04-15T19:01:43;11.2;66.6
78520;SHT31;67818;51.986;5.648;2023-04-15T19:04:14;11.2;66.1
78520;SHT31;67818;51.986;5.648;2023-04-15T19:06:45;11.2;66.8
78520;SHT31;67818;51.986;5.648;2023-04-15T19:09:23;11.2;67.1
78520;SHT31;67818;51.986;5.648;2023-04-15T19:11:55;11.2;67.2
78520;SHT31;67818;51.986;5.648;2023-04-15T19:14:29;11.1;67.1
78520;SHT31;67818;51.986;5.648;2023-04-15T19:17:03;11.1;67.6
78520;SHT31;67818;51.986;5.648;2023-04-15T19:19:36;11.1;67.3
78520;SHT31;67818;51.986;5.648;2023-04-15T19:22:15;11.1;67.4
78520;SHT31;67818;51.986;5.648;2023-04-15T19:24:47;11.1;67.3
78520;SHT31;67818;51.986;5.648;2023-04-15T19:27:20;11.0;67.7
78520;SHT31;67818;51.986;5.648;2023-04-15T19:29:53;11.0;67.7
78520;SHT31;67818;51.986;5.648;2023-04-15T19:32:27;11.0;67.9
78520;SHT31;67818;51.986;5.648;2023-04-15T19:34:59;11.0;68.2
78520;SHT31;67818;51.986;5.648;2023-04-15T19:37:32;11.0;68.3
78520;SHT31;67818;51.986;5.648;2023-04-15T19:40:04;11.0;68.1
78520;SHT31;67818;51.986;5.648;2023-04-15T19:42:38;10.9;68.3
78520;SHT31;67818;51.986;5.648;2023-04-15T19:45:10;10.9;68.2
78520;SHT31;67818;51.986;5.648;2023-04-15T19:47:45;10.9;68.1
78520;SHT31;67818;51.986;5.648;2023-04-15T19:50:17;10.9;68.0
78520;SHT31;67818;51.986;5.648;2023-04-15T19:52:59;10.9;68.3
78520;SHT31;67818;51.986;5.648;2023-04-15T19:55:32;10.9;68.8
78520;SHT31;67818;51.986;5.648;2023-04-15T19:58:04;10.9;68.2
78520;SHT31;67818;51.986;5.648;2023-04-15T20:00:48;11.0;68.3
78520;SHT31;67818;51.986;5.648;2023-04-15T20:03:24;11.1;68.3
78520;SHT31;67818;51.986;5.648;2023-04-15T20:06:06;11.2;67.7
78520;SHT31;67818;51.986;5.648;2023-04-15T20:08:37;11.3;67.1
78520;SHT31;67818;51.986;5.648;2023-04-15T20:11:12;11.4;66.8
78520;SHT31;67818;51.986;5.648;2023-04-15T20:13:57;11.5;65.9
